createdAt,value
2017-06-20T00:00:18.336Z,63.31
2017-06-20T00:00:58.825Z,63.01
2017-06-20T00:01:39.384Z,62.92
2017-06-20T00:02:20.036Z,63.21
2017-06-20T00:03:00.547Z,63.31
2017-06-20T00:03:41.034Z,62.82
2017-06-20T00:04:21.509Z,63.11
2017-06-20T00:05:02.032Z,62.92
2017-06-20T00:05:42.574Z,63.4
2017-06-20T00:06:23.096Z,63.01
2017-06-20T00:07:03.683Z,63.49
2017-06-20T00:07:44.161Z,63.4
2017-06-20T00:08:24.638Z,63.11
2017-06-20T00:09:05.122Z,63.49
2017-06-20T00:09:45.637Z,63.4
2017-06-20T00:10:26.184Z,63.4
2017-06-20T00:11:06.695Z,62.72
2017-06-20T00:11:47.158Z,63.49
2017-06-20T00:12:27.667Z,63.01
2017-06-20T00:13:08.152Z,63.21
2017-06-20T00:13:48.858Z,63.4
2017-06-20T00:14:29.380Z,63.4
2017-06-20T00:15:09.850Z,63.21
2017-06-20T00:15:50.345Z,63.31
2017-06-20T00:16:30.852Z,63.76
2017-06-20T00:17:11.342Z,63.49
2017-06-20T00:17:52.477Z,63.49
2017-06-20T00:18:32.955Z,63.59
2017-06-20T00:19:13.439Z,63.69
2017-06-20T00:19:53.930Z,63.4
2017-06-20T00:20:34.438Z,63.31
2017-06-20T00:21:14.912Z,63.69
2017-06-20T00:21:55.380Z,63.98
2017-06-20T00:22:35.875Z,63.37
2017-06-20T00:23:16.385Z,63.79
2017-06-20T00:23:56.949Z,63.27
2017-06-20T00:24:37.497Z,63.49
2017-06-20T00:25:18.024Z,63.59
2017-06-20T00:25:58.598Z,63.59
2017-06-20T00:26:39.093Z,63.85
2017-06-20T00:27:19.584Z,63.76
2017-06-20T00:28:00.130Z,63.76
2017-06-20T00:28:40.791Z,63.95
2017-06-20T00:29:21.242Z,64.72
2017-06-20T00:30:01.748Z,64.34
2017-06-20T00:30:42.288Z,64.72
2017-06-20T00:31:22.750Z,64.82
2017-06-20T00:32:03.259Z,65.2
2017-06-20T00:32:43.787Z,64.72
2017-06-20T00:33:24.425Z,65.5
2017-06-20T00:34:04.935Z,65.5
2017-06-20T00:34:45.424Z,65.4
2017-06-20T00:35:26.144Z,66.17
2017-06-20T00:36:06.740Z,66.08
2017-06-20T00:36:47.147Z,66.08
2017-06-20T00:37:27.708Z,65.79
2017-06-20T00:38:08.169Z,65.88
2017-06-20T00:38:48.797Z,65.88
2017-06-20T00:39:29.320Z,65.88
2017-06-20T00:40:09.798Z,65.98
2017-06-20T00:40:50.309Z,65.98
2017-06-20T00:41:30.799Z,65.88
2017-06-20T00:42:11.432Z,66.17
2017-06-20T00:42:52.003Z,66.75
2017-06-20T00:43:32.502Z,66.56
2017-06-20T00:44:13.002Z,65.98
2017-06-20T00:44:53.500Z,65.59
2017-06-20T00:45:34.004Z,66.08
2017-06-20T00:46:14.509Z,66.66
2017-06-20T00:46:54.989Z,66.56
2017-06-20T00:47:36.262Z,66.85
2017-06-20T00:48:17.006Z,66.75
2017-06-20T00:48:57.473Z,66.85
2017-06-20T00:49:37.992Z,66.27
2017-06-20T00:50:18.470Z,67.24
2017-06-20T00:50:58.986Z,66.75
2017-06-20T00:51:39.472Z,66.85
2017-06-20T00:52:20.024Z,67.14
2017-06-20T00:53:00.507Z,67.69
2017-06-20T00:53:40.968Z,68.27
2017-06-20T00:54:21.472Z,68.17
2017-06-20T00:55:02.110Z,68.08
2017-06-20T00:55:42.555Z,67.4
2017-06-20T00:56:23.128Z,67.4
2017-06-20T00:57:03.712Z,67.59
2017-06-20T00:57:44.217Z,67.14
2017-06-20T00:58:24.662Z,67.53
2017-06-20T00:59:05.194Z,66.95
2017-06-20T00:59:45.711Z,67.24
2017-06-20T01:00:26.247Z,67.4
2017-06-20T01:01:06.699Z,67.11
2017-06-20T01:01:47.204Z,67.21
2017-06-20T01:02:27.876Z,67.49
2017-06-20T01:03:08.373Z,67.4
2017-06-20T01:03:48.995Z,67.98
2017-06-20T01:04:29.469Z,68.17
2017-06-20T01:05:09.961Z,68.17
2017-06-20T01:05:50.465Z,68.08
2017-06-20T01:06:30.967Z,68.08
2017-06-20T01:07:11.496Z,67.98
2017-06-20T01:07:51.924Z,68.08
2017-06-20T01:08:32.445Z,67.69
2017-06-20T01:09:18.120Z,67.79
2017-06-20T01:10:02.290Z,67.4
2017-06-20T01:10:42.826Z,67.49
2017-06-20T01:11:23.467Z,67.4
2017-06-20T01:12:04.001Z,67.4
2017-06-20T01:12:44.434Z,67.01
2017-06-20T01:13:24.952Z,67.01
2017-06-20T01:14:05.432Z,66.91
2017-06-20T01:14:45.930Z,67.11
2017-06-20T01:15:26.417Z,66.82
2017-06-20T01:16:06.929Z,66.91
2017-06-20T01:16:47.458Z,67.21
2017-06-20T01:17:28.013Z,67.01
2017-06-20T01:18:08.503Z,66.91
2017-06-20T01:18:49.017Z,67.49
2017-06-20T01:19:29.501Z,67.01
2017-06-20T01:20:10.025Z,67.3
2017-06-20T01:20:50.783Z,67.49
2017-06-20T01:21:31.254Z,67.4
2017-06-20T01:22:11.772Z,67.21
2017-06-20T01:22:52.265Z,67.4
2017-06-20T01:23:32.772Z,67.3
2017-06-20T01:24:13.255Z,66.82
2017-06-20T01:24:53.767Z,67.3
2017-06-20T01:25:34.380Z,67.01
2017-06-20T01:26:14.821Z,67.01
2017-06-20T01:26:55.285Z,67.21
2017-06-20T01:27:35.811Z,66.82
2017-06-20T01:28:16.314Z,67.21
2017-06-20T01:28:56.832Z,67.11
2017-06-20T01:29:37.340Z,67.21
2017-06-20T01:30:17.834Z,67.3
2017-06-20T01:30:58.397Z,66.82
2017-06-20T01:31:38.904Z,66.82
2017-06-20T01:32:19.352Z,67.3
2017-06-20T01:32:59.889Z,67.08
2017-06-20T01:33:40.431Z,66.91
2017-06-20T01:34:20.920Z,67.01
2017-06-20T01:35:01.398Z,67.11
2017-06-20T01:35:41.954Z,67.59
2017-06-20T01:36:22.414Z,66.82
2017-06-20T01:37:02.911Z,66.91
2017-06-20T01:37:43.430Z,66.82
2017-06-20T01:38:23.973Z,67.11
2017-06-20T01:39:04.427Z,67.3
2017-06-20T01:39:44.954Z,66.33
2017-06-20T01:40:25.451Z,66.63
2017-06-20T01:41:05.975Z,66.72
2017-06-20T01:41:46.552Z,66.72
2017-06-20T01:42:27.053Z,66.63
2017-06-20T01:43:07.515Z,66.63
2017-06-20T01:43:48.016Z,66.53
2017-06-20T01:44:28.533Z,66.82
2017-06-20T01:45:09.020Z,66.53
2017-06-20T01:45:49.533Z,66.24
2017-06-20T01:46:30.052Z,66.05
2017-06-20T01:47:10.560Z,65.75
2017-06-20T01:47:51.004Z,66.14
2017-06-20T01:48:31.478Z,66.01
2017-06-20T01:49:12.001Z,65.72
2017-06-20T01:49:52.476Z,66.63
2017-06-20T01:50:33.188Z,66.63
2017-06-20T01:51:13.674Z,66.63
2017-06-20T01:51:54.147Z,66.63
2017-06-20T01:52:34.727Z,66.82
2017-06-20T01:53:15.164Z,66.59
2017-06-20T01:53:55.662Z,66.63
2017-06-20T01:54:36.345Z,66.5
2017-06-20T01:55:16.833Z,66.63
2017-06-20T01:55:57.310Z,66.5
2017-06-20T01:56:37.794Z,67.17
2017-06-20T01:57:18.268Z,66.98
2017-06-20T01:57:58.814Z,67.08
2017-06-20T01:58:39.374Z,66.88
2017-06-20T01:59:19.834Z,66.4
2017-06-20T02:00:00.330Z,66.59
2017-06-20T02:00:40.854Z,66.59
2017-06-20T02:01:21.363Z,66.82
2017-06-20T02:02:01.862Z,66.2
2017-06-20T02:02:42.372Z,66.59
2017-06-20T02:03:22.873Z,66.69
2017-06-20T02:04:03.371Z,66.2
2017-06-20T02:04:43.907Z,66.59
2017-06-20T02:05:24.416Z,66.4
2017-06-20T02:06:04.883Z,66.69
2017-06-20T02:06:45.422Z,66.98
2017-06-20T02:07:25.866Z,67.08
2017-06-20T02:08:06.382Z,66.59
2017-06-20T02:08:46.867Z,66.69
2017-06-20T02:09:27.413Z,66.78
2017-06-20T02:10:07.869Z,66.98
2017-06-20T02:10:48.386Z,67.17
2017-06-20T02:11:28.841Z,66.98
2017-06-20T02:12:09.429Z,67.17
2017-06-20T02:12:49.939Z,66.88
2017-06-20T02:13:30.453Z,66.69
2017-06-20T02:14:10.940Z,66.98
2017-06-20T02:14:51.461Z,66.78
2017-06-20T02:15:31.941Z,66.88
2017-06-20T02:16:12.486Z,66.88
2017-06-20T02:16:52.932Z,66.88
2017-06-20T02:17:33.443Z,66.98
2017-06-20T02:18:13.932Z,67.08
2017-06-20T02:18:54.486Z,67.08
2017-06-20T02:19:34.988Z,66.98
2017-06-20T02:20:15.513Z,67.17
2017-06-20T02:20:56.022Z,66.59
2017-06-20T02:21:36.537Z,66.59
2017-06-20T02:22:16.991Z,67.36
2017-06-20T02:22:57.497Z,66.88
2017-06-20T02:23:37.994Z,66.59
2017-06-20T02:24:18.617Z,66.2
2017-06-20T02:24:59.168Z,66.59
2017-06-20T02:25:39.687Z,66.59
2017-06-20T02:26:20.210Z,66.5
2017-06-20T02:27:00.684Z,66.2
2017-06-20T02:27:41.219Z,65.72
2017-06-20T02:28:21.698Z,65.43
2017-06-20T02:29:02.218Z,65.53
2017-06-20T02:29:42.704Z,65.63
2017-06-20T02:30:23.219Z,65.43
2017-06-20T02:31:03.694Z,65.14
2017-06-20T02:31:44.278Z,64.76
2017-06-20T02:32:24.784Z,64.85
2017-06-20T02:33:05.253Z,64.27
2017-06-20T02:33:45.774Z,64.76
2017-06-20T02:34:26.285Z,64.56
2017-06-20T02:35:06.788Z,64.27
2017-06-20T02:35:47.273Z,64.37
2017-06-20T02:36:27.752Z,64.18
2017-06-20T02:37:08.221Z,64.66
2017-06-20T02:37:48.712Z,64.66
2017-06-20T02:38:29.226Z,64.47
2017-06-20T02:39:09.777Z,64.53
2017-06-20T02:39:50.237Z,64.27
2017-06-20T02:40:30.757Z,64.43
2017-06-20T02:41:11.229Z,64.82
2017-06-20T02:41:51.755Z,64.47
2017-06-20T02:42:32.221Z,64.95
2017-06-20T02:43:12.763Z,65.11
2017-06-20T02:43:53.257Z,65.11
2017-06-20T02:44:33.756Z,64.72
2017-06-20T02:45:14.251Z,65.59
2017-06-20T02:45:54.729Z,65.63
2017-06-20T02:46:35.433Z,65.63
2017-06-20T02:47:15.909Z,64.95
2017-06-20T02:47:56.418Z,65.05
2017-06-20T02:48:36.991Z,65.4
2017-06-20T02:49:17.499Z,65.4
2017-06-20T02:49:58.041Z,65.4
2017-06-20T02:50:38.549Z,65.5
2017-06-20T02:51:19.097Z,65.11
2017-06-20T02:51:59.599Z,65.5
2017-06-20T02:52:40.119Z,65.3
2017-06-20T02:53:20.594Z,65.5
2017-06-20T02:54:01.091Z,65.5
2017-06-20T02:54:41.601Z,64.72
2017-06-20T02:55:22.723Z,65.11
2017-06-20T02:56:03.220Z,65.11
2017-06-20T02:56:43.761Z,64.82
2017-06-20T02:57:24.311Z,64.63
2017-06-20T02:58:04.898Z,64.92
2017-06-20T02:58:45.344Z,64.24
2017-06-20T02:59:25.839Z,64.43
2017-06-20T03:00:06.334Z,64.43
2017-06-20T03:00:46.819Z,64.14
2017-06-20T03:01:27.382Z,64.43
2017-06-20T03:02:07.930Z,64.53
2017-06-20T03:02:48.422Z,64.63
2017-06-20T03:03:28.940Z,64.72
2017-06-20T03:04:09.370Z,64.63
2017-06-20T03:04:49.884Z,64.53
2017-06-20T03:05:30.438Z,64.34
2017-06-20T03:06:10.943Z,64.53
2017-06-20T03:06:51.404Z,64.05
2017-06-20T03:07:32.654Z,64.53
2017-06-20T03:08:13.134Z,64.53
2017-06-20T03:08:53.669Z,64.24
2017-06-20T03:09:34.198Z,64.14
2017-06-20T03:10:14.669Z,64.43
2017-06-20T03:10:55.181Z,64.53
2017-06-20T03:11:35.693Z,64.53
2017-06-20T03:12:16.209Z,64.72
2017-06-20T03:12:56.770Z,65.4
2017-06-20T03:13:37.318Z,64.72
2017-06-20T03:14:17.899Z,64.63
2017-06-20T03:14:58.401Z,64.72
2017-06-20T03:15:38.934Z,64.72
2017-06-20T03:16:19.438Z,64.92
2017-06-20T03:16:59.901Z,64.72
2017-06-20T03:17:40.404Z,65.2
2017-06-20T03:18:20.877Z,64.92
2017-06-20T03:19:01.418Z,64.72
2017-06-20T03:19:41.916Z,64.82
2017-06-20T03:20:22.421Z,64.63
2017-06-20T03:21:02.912Z,64.53
2017-06-20T03:21:43.555Z,64.43
2017-06-20T03:22:24.059Z,64.24
2017-06-20T03:23:04.577Z,64.53
2017-06-20T03:23:45.117Z,64.53
2017-06-20T03:24:25.655Z,65.01
2017-06-20T03:25:06.120Z,64.63
2017-06-20T03:25:46.668Z,64.43
2017-06-20T03:26:27.194Z,64.24
2017-06-20T03:27:07.714Z,64.24
2017-06-20T03:27:48.182Z,64.43
2017-06-20T03:28:28.772Z,64.24
2017-06-20T03:29:09.331Z,64.43
2017-06-20T03:29:49.924Z,64.24
2017-06-20T03:30:30.332Z,64.05
2017-06-20T03:31:10.879Z,63.47
2017-06-20T03:31:51.333Z,63.56
2017-06-20T03:32:31.839Z,63.95
2017-06-20T03:34:20.063Z,64.53
2017-06-20T03:35:00.541Z,64.24
2017-06-20T03:35:41.016Z,64.05
2017-06-20T03:36:21.541Z,64.53
2017-06-20T03:37:02.052Z,64.53
2017-06-20T03:37:42.555Z,64.89
2017-06-20T03:38:23.079Z,64.79
2017-06-20T03:39:03.563Z,64.79
2017-06-20T03:39:44.097Z,64.69
2017-06-20T03:40:24.665Z,65.37
2017-06-20T03:41:05.096Z,65.59
2017-06-20T03:41:45.643Z,65.2
2017-06-20T03:42:26.117Z,64.92
2017-06-20T03:43:06.587Z,64.53
2017-06-20T03:43:47.103Z,64.34
2017-06-20T03:44:27.594Z,64.14
2017-06-20T03:45:08.107Z,64.63
2017-06-20T03:45:48.610Z,64.43
2017-06-20T03:46:29.094Z,64.43
2017-06-20T03:47:09.604Z,64.72
2017-06-20T03:47:50.078Z,64.53
2017-06-20T03:48:30.645Z,64.53
2017-06-20T03:49:11.055Z,64.92
2017-06-20T03:49:51.560Z,64.59
2017-06-20T03:50:32.045Z,64.24
2017-06-20T03:51:12.508Z,64.79
2017-06-20T03:51:53.053Z,64.89
2017-06-20T03:52:33.490Z,64.82
2017-06-20T03:53:13.998Z,65.11
2017-06-20T03:53:54.488Z,64.92
2017-06-20T03:54:34.985Z,64.53
2017-06-20T03:55:15.475Z,64.53
2017-06-20T03:55:56.093Z,64.82
2017-06-20T03:56:36.557Z,64.05
2017-06-20T03:57:17.080Z,64.43
2017-06-20T03:57:57.558Z,64.24
2017-06-20T03:58:38.133Z,63.85
2017-06-20T03:59:19.451Z,63.76
2017-06-20T03:59:59.134Z,64.14
2017-06-20T04:00:39.642Z,63.66
2017-06-20T04:01:20.118Z,63.85
2017-06-20T04:02:00.600Z,64.14
2017-06-20T04:02:41.143Z,64.05
2017-06-20T04:03:21.669Z,63.95
2017-06-20T04:04:02.201Z,64.14
2017-06-20T04:04:42.634Z,63.5
2017-06-20T04:05:23.207Z,64.05
2017-06-20T04:06:03.656Z,63.89
2017-06-20T04:06:44.155Z,63.98
2017-06-20T04:07:24.672Z,64.27
2017-06-20T04:08:05.160Z,63.79
2017-06-20T04:08:45.653Z,63.69
2017-06-20T04:09:26.136Z,63.6
2017-06-20T04:10:06.921Z,63.69
2017-06-20T04:10:47.410Z,63.69
2017-06-20T04:11:27.914Z,63.31
2017-06-20T04:12:08.471Z,63.4
2017-06-20T04:12:48.991Z,63.31
2017-06-20T04:13:29.406Z,63.5
2017-06-20T04:14:09.930Z,63.69
2017-06-20T04:14:50.424Z,63.79
2017-06-20T04:15:30.919Z,63.5
2017-06-20T04:16:11.547Z,63.5
2017-06-20T04:16:52.084Z,63.69
2017-06-20T04:17:32.634Z,63.6
2017-06-20T04:18:13.083Z,63.79
2017-06-20T04:18:53.607Z,63.82
2017-06-20T04:19:34.123Z,63.82
2017-06-20T04:20:14.641Z,63.63
2017-06-20T04:20:55.140Z,63.14
2017-06-20T04:21:35.671Z,63.73
2017-06-20T04:22:16.270Z,63.05
2017-06-20T04:24:29.851Z,63.05
2017-06-20T04:25:10.291Z,62.95
2017-06-20T04:25:50.818Z,62.21
2017-06-20T04:26:31.361Z,62.37
2017-06-20T04:27:11.875Z,62.21
2017-06-20T04:27:52.468Z,62.11
2017-06-20T04:28:33.131Z,61.82
2017-06-20T04:29:13.645Z,61.82
2017-06-20T04:29:54.220Z,61.24
2017-06-20T04:30:34.649Z,61.46
2017-06-20T04:31:15.161Z,61.46
2017-06-20T04:31:55.676Z,61.18
2017-06-20T04:32:37.161Z,61.08
2017-06-20T04:33:17.648Z,60.98
2017-06-20T04:33:58.183Z,60.59
2017-06-20T04:34:38.947Z,61.08
2017-06-20T04:35:19.364Z,60.5
2017-06-20T04:35:59.836Z,60.52
2017-06-20T04:36:40.356Z,60.04
2017-06-20T04:37:20.850Z,59.94
2017-06-20T04:38:01.438Z,60.04
2017-06-20T04:38:41.983Z,59.63
2017-06-20T04:39:22.460Z,59.82
2017-06-20T04:40:02.925Z,59.84
2017-06-20T04:40:43.472Z,59.46
2017-06-20T04:41:24.004Z,59.27
2017-06-20T04:42:04.891Z,58.69
2017-06-20T04:42:45.552Z,58.69
2017-06-20T04:43:26.338Z,58.3
2017-06-20T04:44:06.624Z,58.39
2017-06-20T04:44:47.153Z,58.23
2017-06-20T04:45:27.630Z,57.75
2017-06-20T04:46:08.175Z,58.11
2017-06-20T04:46:48.679Z,59.27
2017-06-20T04:47:29.162Z,59.56
2017-06-20T04:48:09.719Z,58.49
2017-06-20T04:48:50.216Z,59.36
2017-06-20T04:49:30.703Z,59.56
2017-06-20T04:50:11.207Z,59.53
2017-06-20T04:50:51.715Z,60.04
2017-06-20T04:51:32.231Z,60.3
2017-06-20T04:52:13.550Z,60.4
2017-06-20T04:52:54.051Z,60.52
2017-06-20T04:53:34.612Z,60.59
2017-06-20T04:54:15.147Z,60.69
2017-06-20T04:54:55.652Z,61.18
2017-06-20T04:55:36.172Z,61.66
2017-06-20T04:56:16.596Z,61.27
2017-06-20T04:56:57.092Z,60.69
2017-06-20T04:57:38.141Z,60.21
2017-06-20T04:58:18.640Z,60.24
2017-06-20T04:59:02.204Z,60.21
2017-06-20T04:59:42.950Z,60.69
2017-06-20T05:03:31.640Z,60.91
2017-06-20T05:04:13.840Z,60.69
2017-06-20T05:04:57.493Z,61.18
2017-06-20T05:05:39.496Z,61.27
2017-06-20T05:06:20.102Z,60.69
2017-06-20T05:07:05.011Z,60.72
2017-06-20T05:11:21.607Z,61.01
2017-06-20T05:12:08.450Z,60.82
2017-06-20T05:19:33.658Z,65.01
2017-06-20T05:20:17.200Z,64.92
2017-06-20T05:20:57.708Z,62.27
2017-06-20T05:21:38.223Z,68.66
2017-06-20T05:22:18.713Z,69.34
2017-06-20T05:24:16.852Z,70.89
2017-06-20T05:24:57.527Z,69.73
2017-06-20T05:25:38.030Z,68.27
2017-06-20T05:26:18.632Z,67.6
2017-06-20T05:26:59.386Z,66.95
2017-06-20T05:27:39.820Z,67.18
2017-06-20T05:28:20.332Z,64.59
2017-06-20T05:29:00.813Z,62.98
2017-06-20T05:29:41.345Z,65.3
2017-06-20T05:30:21.871Z,64.72
2017-06-20T05:31:02.364Z,63.23
2017-06-20T05:31:42.973Z,65.17
2017-06-20T05:32:23.426Z,66.05
2017-06-20T05:33:03.978Z,65.17
2017-06-20T05:33:44.496Z,63.91
2017-06-20T05:34:25.006Z,63.82
2017-06-20T05:35:05.531Z,63.17
2017-06-20T05:35:46.009Z,63.62
2017-06-20T05:36:26.653Z,64.3
2017-06-20T05:37:07.170Z,64.3
2017-06-20T05:37:47.722Z,63.43
2017-06-20T05:38:28.249Z,63.13
2017-06-20T05:39:08.759Z,63.04
2017-06-20T05:39:49.272Z,61.68
2017-06-20T05:40:29.740Z,63.53
2017-06-20T05:41:10.254Z,64.95
2017-06-20T05:41:50.777Z,63.78
2017-06-20T05:42:31.294Z,64.47
2017-06-20T05:43:11.841Z,64.07
2017-06-20T05:43:52.332Z,64.27
2017-06-20T05:44:32.887Z,63.62
2017-06-20T05:45:13.360Z,63.23
2017-06-20T05:45:53.884Z,63.23
2017-06-20T05:46:34.391Z,62.07
2017-06-20T05:47:14.897Z,62.46
2017-06-20T05:47:55.445Z,62.16
2017-06-20T05:48:35.891Z,62.26
2017-06-20T05:49:16.431Z,62.07
2017-06-20T05:49:56.923Z,62.75
2017-06-20T05:50:37.410Z,62.36
2017-06-20T05:51:17.914Z,63.62
2017-06-20T05:51:58.388Z,63.33
2017-06-20T05:52:38.883Z,62.55
2017-06-20T05:53:19.414Z,62.85
2017-06-20T05:53:59.929Z,62.85
2017-06-20T05:54:40.735Z,63.75
2017-06-20T05:55:21.362Z,62.19
2017-06-20T05:56:01.632Z,62.59
2017-06-20T05:56:42.100Z,62.07
2017-06-20T05:57:22.594Z,60.18
2017-06-20T05:58:03.093Z,58.69
2017-06-20T05:58:43.640Z,56.23
2017-06-20T05:59:24.191Z,54.24
2017-06-20T06:00:04.652Z,51.1
2017-06-20T06:02:23.030Z,46.98
2017-06-20T06:03:03.544Z,46.3
2017-06-20T06:03:44.015Z,46.01
2017-06-20T06:04:24.527Z,46.97
2017-06-20T06:05:05.035Z,48.48
2017-06-20T06:05:45.534Z,48.97
2017-06-20T06:06:26.045Z,52.15
2017-06-20T06:07:06.581Z,55.24
2017-06-20T06:07:47.069Z,56.48
2017-06-20T06:08:27.539Z,56.48
2017-06-20T06:09:08.073Z,57.63
2017-06-20T06:09:48.636Z,61.24
2017-06-20T06:10:29.126Z,59.74
2017-06-20T06:11:09.563Z,57.82
2017-06-20T06:11:50.108Z,59.19
2017-06-20T06:12:30.580Z,58.02
2017-06-20T06:13:11.063Z,60.94
2017-06-20T06:13:51.585Z,57.24
2017-06-20T06:14:32.040Z,57.92
2017-06-20T06:15:12.568Z,60.06
2017-06-20T06:15:53.081Z,62.21
2017-06-20T06:16:33.569Z,61.72
2017-06-20T06:17:14.098Z,63.45
2017-06-20T06:17:54.532Z,65.4
2017-06-20T06:18:35.024Z,64.32
2017-06-20T06:19:15.526Z,63.84
2017-06-20T06:19:56.181Z,62.57
2017-06-20T06:20:36.647Z,60.42
2017-06-20T06:21:17.105Z,56.95
2017-06-20T06:21:57.617Z,57.56
2017-06-20T06:22:38.212Z,61.76
2017-06-20T06:23:18.759Z,60.97
2017-06-20T06:23:59.234Z,59.61
2017-06-20T06:24:39.727Z,60.58
2017-06-20T06:25:20.212Z,54.95
2017-06-20T06:26:00.707Z,51.43
2017-06-20T06:26:41.209Z,52.7
2017-06-20T06:27:21.737Z,58.07
2017-06-20T06:28:02.259Z,60.42
2017-06-20T06:28:42.734Z,56.12
2017-06-20T06:29:23.244Z,54.07
2017-06-20T06:30:03.771Z,56.64
2017-06-20T06:30:44.251Z,57.71
2017-06-20T06:31:24.773Z,62.89
2017-06-20T06:32:05.274Z,63.24
2017-06-20T06:32:45.771Z,60.71
2017-06-20T06:33:26.284Z,59.64
2017-06-20T06:34:06.863Z,62.56
2017-06-20T06:34:47.369Z,65.49
2017-06-20T06:35:27.874Z,66.37
2017-06-20T06:36:08.364Z,62.53
2017-06-20T06:36:48.835Z,58.95
2017-06-20T06:37:29.348Z,58.17
2017-06-20T06:38:09.866Z,58.4
2017-06-20T06:38:50.400Z,60.16
2017-06-20T06:39:30.923Z,60.94
2017-06-20T06:40:11.419Z,60.32
2017-06-20T06:40:51.927Z,61.27
2017-06-20T06:41:32.446Z,56.51
2017-06-20T06:42:12.945Z,56.12
2017-06-20T06:42:53.480Z,55.24
2017-06-20T06:43:33.983Z,56.22
2017-06-20T06:44:14.592Z,58.56
2017-06-20T06:44:55.174Z,58.63
2017-06-20T06:45:35.659Z,58.34
2017-06-20T06:46:16.171Z,56.38
2017-06-20T06:46:56.714Z,56.77
2017-06-20T06:47:37.199Z,57.36
2017-06-20T06:48:17.697Z,57.36
2017-06-20T06:48:58.244Z,56.29
2017-06-20T06:49:38.781Z,55.41
2017-06-20T06:50:19.222Z,57.65
2017-06-20T06:50:59.717Z,58.92
2017-06-20T06:51:40.223Z,58.83
2017-06-20T06:52:20.727Z,59.77
2017-06-20T06:53:01.249Z,57.24
2017-06-20T06:53:41.748Z,60.55
2017-06-20T06:54:22.250Z,61.14
2017-06-20T06:55:02.755Z,59.77
2017-06-20T06:55:43.226Z,58.5
2017-06-20T06:56:23.757Z,56.16
2017-06-20T06:57:04.273Z,54.44
2017-06-20T06:57:44.793Z,55.41
2017-06-20T06:58:25.258Z,54.24
2017-06-20T06:59:05.787Z,52.58
2017-06-20T06:59:46.359Z,56.58
2017-06-20T07:00:26.874Z,57.24
2017-06-20T07:01:07.327Z,57.26
2017-06-20T07:01:47.849Z,58.4
2017-06-20T07:02:28.346Z,61.82
2017-06-20T07:03:08.861Z,61.53
2017-06-20T07:03:49.358Z,57.34
2017-06-20T07:04:29.866Z,63.67
2017-06-20T07:05:10.399Z,60.88
2017-06-20T07:05:50.888Z,58.34
2017-06-20T07:06:31.458Z,65.17
2017-06-20T07:07:11.939Z,60.49
2017-06-20T07:07:52.434Z,59.67
2017-06-20T07:08:32.935Z,59.9
2017-06-20T07:09:13.490Z,60
2017-06-20T07:09:54.051Z,62.63
2017-06-20T07:10:34.525Z,58.76
2017-06-20T07:11:14.990Z,64.12
2017-06-20T07:11:55.558Z,65.36
2017-06-20T07:12:36.011Z,65.56
2017-06-20T07:13:16.571Z,66.05
2017-06-20T07:13:57.064Z,64
2017-06-20T07:14:37.572Z,63.7
2017-06-20T07:15:18.054Z,57.85
2017-06-20T07:15:58.616Z,63.6
2017-06-20T07:16:39.083Z,65.46
2017-06-20T07:17:19.603Z,63.6
2017-06-20T07:18:00.135Z,63.44
2017-06-20T07:18:40.671Z,62.56
2017-06-20T07:19:21.192Z,63.64
2017-06-20T07:20:01.711Z,62.56
2017-06-20T07:20:42.189Z,57.71
2017-06-20T07:21:23.528Z,60.06
2017-06-20T07:22:04.003Z,59.01
2017-06-20T07:22:44.499Z,60.28
2017-06-20T07:23:25.016Z,58.84
2017-06-20T07:24:05.522Z,58.45
2017-06-20T07:24:45.973Z,61.87
2017-06-20T07:25:27.353Z,61.77
2017-06-20T07:26:08.578Z,60.6
2017-06-20T07:26:49.063Z,60.21
2017-06-20T07:27:29.586Z,56.7
2017-06-20T07:28:10.100Z,54.25
2017-06-20T07:28:50.638Z,56.4
2017-06-20T07:29:31.110Z,57.38
2017-06-20T07:30:11.605Z,60.02
2017-06-20T07:30:52.088Z,60.02
2017-06-20T07:31:32.583Z,56.6
2017-06-20T07:32:13.092Z,53.86
2017-06-20T07:32:53.599Z,55.35
2017-06-20T07:33:34.139Z,55.16
2017-06-20T07:34:14.607Z,55.42
2017-06-20T07:34:55.127Z,52.81
2017-06-20T07:35:35.632Z,52.12
2017-06-20T07:36:16.125Z,50.07
2017-06-20T07:36:56.649Z,49.77
2017-06-20T07:37:37.183Z,50.95
2017-06-20T07:38:17.666Z,49.29
2017-06-20T07:38:58.163Z,51.83
2017-06-20T07:39:38.724Z,51.93
2017-06-20T07:40:19.213Z,55.71
2017-06-20T07:40:59.675Z,55.22
2017-06-20T07:41:40.206Z,54.54
2017-06-20T07:42:20.729Z,55.2
2017-06-20T07:43:01.216Z,57.48
2017-06-20T07:43:41.750Z,61.25
2017-06-20T07:44:22.291Z,60.21
2017-06-20T07:45:02.754Z,61.23
2017-06-20T07:47:21.108Z,56.64
2017-06-20T07:48:01.667Z,55.47
2017-06-20T07:48:42.235Z,57.52
2017-06-20T07:49:22.786Z,58.47
2017-06-20T07:50:03.307Z,58.07
2017-06-20T07:50:43.792Z,56.54
2017-06-20T07:51:24.301Z,58.42
2017-06-20T07:52:04.825Z,61.35
2017-06-20T07:52:45.345Z,61.06
2017-06-20T07:53:25.842Z,61.35
2017-06-20T07:54:06.385Z,58.03
2017-06-20T07:54:46.901Z,56.08
2017-06-20T07:55:27.456Z,55.03
2017-06-20T07:56:07.930Z,57.38
2017-06-20T07:56:48.430Z,58.26
2017-06-20T07:57:28.921Z,60.41
2017-06-20T07:58:09.442Z,54.25
2017-06-20T07:58:49.958Z,56.6
2017-06-20T07:59:30.453Z,59.11
2017-06-20T08:00:10.970Z,62.63
2017-06-20T08:00:51.587Z,63.31
2017-06-20T08:01:32.113Z,62.43
2017-06-20T08:02:12.581Z,61.19
2017-06-20T08:02:53.117Z,64.12
2017-06-20T08:03:33.662Z,63.44
2017-06-20T08:04:14.194Z,58.65
2017-06-20T08:04:54.731Z,61.58
2017-06-20T08:05:35.196Z,62.95
2017-06-20T08:06:15.701Z,64.48
2017-06-20T08:06:56.187Z,66.34
2017-06-20T08:07:36.755Z,61.84
2017-06-20T08:08:17.289Z,64
2017-06-20T08:08:57.740Z,64.19
2017-06-20T08:09:38.198Z,61.06
2017-06-20T08:10:18.771Z,60.89
2017-06-20T08:10:59.245Z,58.75
2017-06-20T08:11:39.739Z,58.65
2017-06-20T08:12:20.279Z,57.77
2017-06-20T08:13:00.752Z,64.51
2017-06-20T08:13:41.312Z,65.49
2017-06-20T08:14:21.808Z,62.85
2017-06-20T08:15:02.336Z,57.48
2017-06-20T08:15:42.875Z,60.6
2017-06-20T08:16:23.396Z,58.26
2017-06-20T08:17:03.880Z,61.58
2017-06-20T08:17:44.419Z,63.64
2017-06-20T08:18:24.924Z,60.5
2017-06-20T08:19:05.456Z,59.14
2017-06-20T08:19:45.945Z,56.6
2017-06-20T08:20:26.518Z,61.97
2017-06-20T08:21:06.988Z,63.44
2017-06-20T08:21:47.518Z,58.26
2017-06-20T08:22:27.974Z,56.5
2017-06-20T08:23:08.563Z,60.5
2017-06-20T08:23:49.018Z,60.21
2017-06-20T08:24:29.499Z,58.75
2017-06-20T08:25:10.008Z,60.02
2017-06-20T08:25:50.556Z,58.26
2017-06-20T08:26:31.045Z,55.03
2017-06-20T08:27:11.547Z,56.3
2017-06-20T08:27:52.036Z,57.38
2017-06-20T08:28:32.541Z,54.64
2017-06-20T08:29:13.110Z,52.59
2017-06-20T08:29:53.656Z,56.4
2017-06-20T08:30:34.095Z,56.79
2017-06-20T08:31:14.619Z,55.69
2017-06-20T08:31:55.095Z,57.64
2017-06-20T08:32:35.605Z,57.74
2017-06-20T08:33:16.154Z,58.03
2017-06-20T08:33:56.622Z,59.99
2017-06-20T08:34:37.139Z,58.72
2017-06-20T08:35:17.695Z,61.06
2017-06-20T08:35:58.195Z,62.79
2017-06-20T08:36:38.693Z,65.63
2017-06-20T08:37:19.188Z,61.82
2017-06-20T08:37:59.746Z,60.16
2017-06-20T08:38:40.257Z,63.28
2017-06-20T08:39:20.762Z,64.45
2017-06-20T08:40:01.299Z,58.2
2017-06-20T08:40:41.755Z,59.96
2017-06-20T08:41:22.249Z,62.01
2017-06-20T08:42:02.729Z,63.77
2017-06-20T08:42:43.248Z,65.33
2017-06-20T08:43:23.759Z,59.86
2017-06-20T08:44:04.286Z,64.36
2017-06-20T08:44:44.755Z,64.45
2017-06-20T08:45:25.309Z,61.98
2017-06-20T08:46:05.812Z,56.05
2017-06-20T08:46:46.310Z,61.62
2017-06-20T08:47:26.806Z,57.32
2017-06-20T08:48:07.310Z,58.2
2017-06-20T08:48:47.823Z,61.43
2017-06-20T08:49:28.382Z,61.72
2017-06-20T08:50:08.923Z,60.06
2017-06-20T08:50:49.386Z,58.98
2017-06-20T08:51:29.906Z,56.27
2017-06-20T08:52:10.403Z,55.47
2017-06-20T08:52:50.958Z,58.72
2017-06-20T08:53:31.479Z,56.27
2017-06-20T08:54:12.001Z,55.4
2017-06-20T08:54:52.509Z,57.71
2017-06-20T08:55:33.037Z,59.86
2017-06-20T08:56:13.528Z,59.77
2017-06-20T08:56:54.020Z,59.96
2017-06-20T08:57:34.518Z,61.3
2017-06-20T08:58:15.086Z,59.54
2017-06-20T08:58:55.580Z,58.4
2017-06-20T08:59:36.083Z,58.66
2017-06-20T09:00:16.590Z,60.32
2017-06-20T09:00:57.096Z,56.32
2017-06-20T09:01:37.609Z,55.96
2017-06-20T09:02:18.090Z,57.68
2017-06-20T09:02:58.595Z,58.95
2017-06-20T09:03:39.107Z,59.54
2017-06-20T09:04:19.666Z,56.93
2017-06-20T09:05:00.147Z,58.2